createdAt,value
2018-06-08T00:01:31.305Z,18.20
2018-06-08T00:04:01.576Z,18.20
2018-06-08T00:06:31.939Z,18.20
2018-06-08T00:09:02.407Z,18.20
2018-06-08T00:11:32.723Z,18.20
2018-06-08T00:16:32.923Z,18.30
2018-06-08T00:19:03.205Z,18.20
2018-06-08T00:21:33.512Z,18.20
2018-06-08T00:24:03.788Z,18.20
2018-06-08T00:26:34.100Z,18.20
2018-06-08T00:29:04.396Z,18.20
2018-06-08T00:31:34.737Z,18.20
2018-06-08T00:34:05.008Z,18.10
2018-06-08T00:36:35.305Z,18.10
2018-06-08T00:39:09.295Z,18.10
2018-06-08T00:41:39.615Z,18.10
2018-06-08T00:44:09.936Z,18.10
2018-06-08T00:46:40.352Z,18.00
2018-06-08T00:49:10.732Z,18.00
2018-06-08T00:51:41.085Z,18.00
2018-06-08T00:56:58.276Z,17.90
2018-06-08T00:59:28.543Z,17.90
2018-06-08T01:01:58.868Z,17.90
2018-06-08T01:04:29.134Z,17.90
2018-06-08T01:06:59.548Z,17.80
2018-06-08T01:09:29.822Z,17.70
2018-06-08T01:12:00.149Z,17.70
2018-06-08T01:14:32.997Z,17.60
2018-06-08T01:17:03.589Z,17.60
2018-06-08T01:19:35.139Z,17.60
2018-06-08T01:22:05.456Z,17.50
2018-06-08T01:24:35.768Z,17.50
2018-06-08T01:27:06.990Z,17.40
2018-06-08T01:29:37.272Z,16.80
2018-06-08T01:32:07.540Z,17.30
2018-06-08T01:34:37.844Z,17.30
2018-06-08T01:37:08.127Z,17.20
2018-06-08T01:39:38.485Z,17.20
2018-06-08T01:42:08.761Z,17.20
2018-06-08T01:44:39.067Z,17.10
2018-06-08T01:47:09.393Z,17.10
2018-06-08T01:49:39.716Z,17.10
2018-06-08T01:52:10.045Z,17.10
2018-06-08T01:54:40.328Z,17.00
2018-06-08T01:57:10.622Z,17.00
2018-06-08T01:59:40.909Z,17.00
2018-06-08T02:02:11.225Z,16.90
2018-06-08T02:04:41.537Z,16.90
2018-06-08T02:07:11.866Z,16.90
2018-06-08T02:09:42.137Z,16.90
2018-06-08T02:12:12.413Z,16.80
2018-06-08T02:14:42.723Z,16.80
2018-06-08T02:17:12.969Z,16.80
2018-06-08T02:19:43.287Z,16.80
2018-06-08T02:22:13.560Z,16.70
2018-06-08T02:24:43.887Z,16.70
2018-06-08T02:27:14.108Z,16.70
2018-06-08T02:29:44.436Z,16.70
2018-06-08T02:32:14.736Z,16.70
2018-06-08T02:34:45.061Z,16.60
2018-06-08T02:37:15.385Z,16.60
2018-06-08T02:44:45.461Z,16.60
2018-06-08T02:47:15.750Z,16.60
2018-06-08T02:52:15.976Z,16.60
2018-06-08T02:54:46.263Z,16.60
2018-06-08T02:57:16.590Z,16.60
2018-06-08T02:59:46.852Z,16.60
2018-06-08T03:04:47.075Z,16.70
2018-06-08T03:07:17.408Z,16.70
2018-06-08T03:09:47.656Z,16.70
2018-06-08T03:12:17.986Z,16.70
2018-06-08T03:14:48.273Z,16.70
2018-06-08T03:17:18.657Z,16.80
2018-06-08T03:19:48.956Z,16.80
2018-06-08T03:22:19.323Z,16.90
2018-06-08T03:24:49.669Z,16.90
2018-06-08T03:27:19.982Z,16.90
2018-06-08T03:29:50.357Z,17.00
2018-06-08T03:32:20.652Z,17.00
2018-06-08T03:34:50.909Z,17.00
2018-06-08T03:37:21.357Z,17.00
2018-06-08T03:39:51.703Z,17.00
2018-06-08T03:42:22.033Z,17.00
2018-06-08T03:44:52.360Z,17.00
2018-06-08T03:47:22.675Z,17.00
2018-06-08T03:49:52.954Z,17.00
2018-06-08T03:52:23.448Z,16.90
2018-06-08T03:54:53.764Z,17.00
2018-06-08T03:57:24.153Z,17.00
2018-06-08T03:59:54.481Z,17.00
2018-06-08T04:02:24.779Z,17.00
2018-06-08T04:04:55.088Z,17.00
2018-06-08T04:07:25.452Z,17.10
2018-06-08T04:09:55.807Z,17.10
2018-06-08T04:12:26.073Z,17.10
2018-06-08T04:14:56.347Z,17.10
2018-06-08T04:17:26.599Z,17.20
2018-06-08T04:19:56.880Z,17.20
2018-06-08T04:22:27.140Z,17.30
2018-06-08T04:27:27.286Z,17.20
2018-06-08T04:29:57.575Z,17.30
2018-06-08T04:32:27.881Z,17.30
2018-06-08T04:34:58.162Z,17.40
2018-06-08T04:37:28.447Z,17.50
2018-06-08T04:39:58.721Z,17.60
2018-06-08T04:42:29.009Z,17.70
2018-06-08T04:44:59.259Z,17.70
2018-06-08T04:47:29.508Z,17.70
2018-06-08T04:49:59.752Z,17.80
2018-06-08T04:52:30.367Z,17.80
2018-06-08T04:55:00.640Z,17.90
2018-06-08T05:00:00.833Z,18.00
2018-06-08T05:02:31.188Z,18.10
2018-06-08T05:05:01.469Z,18.20
2018-06-08T05:07:31.748Z,18.30
2018-06-08T05:10:02.057Z,18.30
2018-06-08T05:12:32.328Z,18.40
2018-06-08T05:15:02.592Z,18.50
2018-06-08T05:17:32.883Z,18.60
2018-06-08T05:20:03.178Z,18.70
2018-06-08T05:22:33.488Z,18.80
2018-06-08T05:30:07.643Z,19.20
2018-06-08T05:32:37.948Z,19.20
2018-06-08T05:35:08.251Z,19.30
2018-06-08T05:37:38.577Z,19.30
2018-06-08T05:40:08.920Z,19.30
2018-06-08T05:42:39.230Z,19.40
2018-06-08T05:45:09.473Z,19.40
2018-06-08T05:47:39.782Z,19.50
2018-06-08T05:50:10.117Z,19.50
2018-06-08T05:55:10.524Z,19.70
2018-06-08T05:57:40.820Z,19.80
2018-06-08T06:00:11.181Z,19.90
2018-06-08T06:02:41.503Z,20.10
2018-06-08T06:05:11.973Z,20.20
2018-06-08T06:07:42.266Z,20.30
2018-06-08T06:10:12.555Z,20.40
2018-06-08T06:12:42.847Z,20.40
2018-06-08T06:15:13.192Z,20.40
2018-06-08T06:17:43.501Z,20.60
2018-06-08T06:20:13.812Z,20.70
2018-06-08T06:22:44.112Z,20.70
2018-06-08T06:25:14.447Z,20.80
2018-06-08T06:27:44.769Z,20.90
2018-06-08T06:30:15.066Z,21.10
2018-06-08T06:32:45.357Z,21.20
2018-06-08T06:35:15.635Z,21.30
2018-06-08T06:37:46.018Z,21.50
2018-06-08T06:40:16.412Z,21.50
2018-06-08T06:42:46.705Z,21.40
2018-06-08T06:45:17.444Z,21.50
2018-06-08T06:47:47.717Z,21.60
2018-06-08T06:50:18.045Z,21.70
2018-06-08T06:52:48.488Z,21.80
2018-06-08T06:55:18.805Z,21.90
2018-06-08T06:57:49.096Z,21.80
2018-06-08T07:00:19.515Z,21.90
2018-06-08T07:02:49.800Z,21.80
2018-06-08T07:05:20.131Z,21.70
2018-06-08T07:07:50.405Z,21.70
2018-06-08T07:10:20.705Z,21.70
2018-06-08T07:12:51.078Z,21.70
2018-06-08T07:15:21.319Z,21.70
2018-06-08T07:17:51.678Z,21.80
2018-06-08T07:20:22.023Z,21.90
2018-06-08T07:22:52.321Z,22.00
2018-06-08T07:25:22.589Z,22.20
2018-06-08T07:27:52.867Z,22.30
2018-06-08T07:30:23.272Z,22.40
2018-06-08T07:32:53.573Z,22.40
2018-06-08T07:35:23.838Z,22.40
2018-06-08T07:37:54.118Z,22.50
2018-06-08T07:40:24.520Z,22.60
2018-06-08T07:42:54.805Z,22.80
2018-06-08T07:45:25.105Z,23.00
2018-06-08T07:47:55.376Z,23.20
2018-06-08T07:50:25.664Z,23.40
2018-06-08T07:52:56.057Z,23.50
2018-06-08T07:55:26.363Z,23.60
2018-06-08T07:57:56.679Z,23.60
2018-06-08T08:00:26.944Z,23.70
2018-06-08T08:02:57.281Z,23.80
2018-06-08T08:05:27.637Z,24.00
2018-06-08T08:07:57.917Z,24.10
2018-06-08T08:10:28.267Z,24.20
2018-06-08T08:12:58.562Z,24.30
2018-06-08T08:15:28.868Z,24.30
2018-06-08T08:17:59.200Z,24.30
2018-06-08T08:20:29.565Z,24.10
2018-06-08T08:22:59.814Z,24.10
2018-06-08T08:25:30.116Z,24.20
2018-06-08T08:28:00.393Z,24.20
2018-06-08T08:30:30.753Z,24.40
2018-06-08T08:33:01.049Z,24.40
2018-06-08T08:35:31.375Z,24.40
2018-06-08T08:38:01.599Z,24.40
2018-06-08T08:40:31.902Z,24.40
2018-06-08T08:43:02.237Z,24.40
2018-06-08T08:45:32.554Z,24.50
2018-06-08T08:48:02.811Z,24.50
2018-06-08T08:50:33.146Z,24.50
2018-06-08T08:55:33.843Z,24.50
2018-06-08T08:58:04.176Z,24.50
2018-06-08T09:00:34.446Z,24.40
2018-06-08T09:05:34.689Z,24.30
2018-06-08T09:08:05.368Z,24.40
2018-06-08T09:10:35.653Z,24.50
2018-06-08T09:13:06.055Z,24.40
2018-06-08T09:15:36.321Z,24.40
2018-06-08T09:18:06.625Z,24.40
2018-06-08T09:20:36.930Z,24.50
2018-06-08T09:23:07.237Z,24.40
2018-06-08T09:25:37.505Z,24.40
2018-06-08T09:28:07.813Z,24.50
2018-06-08T09:33:07.905Z,24.80
2018-06-08T09:35:38.217Z,24.70
2018-06-08T09:38:08.485Z,24.80
2018-06-08T09:40:38.785Z,24.90
2018-06-08T09:43:09.070Z,25.00
2018-06-08T09:45:39.353Z,25.00
2018-06-08T09:50:39.583Z,24.90
2018-06-08T09:53:10.197Z,25.10
2018-06-08T09:55:40.642Z,25.20
2018-06-08T09:58:10.955Z,25.10
2018-06-08T10:00:41.663Z,25.10
2018-06-08T10:03:12.296Z,25.20
2018-06-08T10:05:42.630Z,25.30
2018-06-08T10:08:12.944Z,25.40
2018-06-08T10:10:43.256Z,25.40
2018-06-08T10:13:13.557Z,25.40
2018-06-08T10:15:43.905Z,25.30
2018-06-08T10:18:14.255Z,25.40
2018-06-08T10:20:44.723Z,25.50
2018-06-08T10:23:15.131Z,25.60
2018-06-08T10:25:45.473Z,25.60
2018-06-08T10:28:15.940Z,25.80
2018-06-08T10:30:46.306Z,25.90
2018-06-08T10:33:16.599Z,26.00
2018-06-08T10:35:46.972Z,26.20
2018-06-08T10:40:47.412Z,26.90
2018-06-08T10:45:47.668Z,27.90
2018-06-08T10:48:18.037Z,28.30
2018-06-08T10:50:48.302Z,28.80
2018-06-08T10:53:18.728Z,29.30
2018-06-08T10:55:49.082Z,29.40
2018-06-08T11:00:49.298Z,29.90
2018-06-08T11:05:49.482Z,30.30
2018-06-08T11:08:19.768Z,30.60
2018-06-08T11:10:50.055Z,30.90
2018-06-08T11:13:20.490Z,31.10
2018-06-08T11:15:51.149Z,31.40
2018-06-08T11:18:21.518Z,31.30
2018-06-08T11:20:51.841Z,31.30
2018-06-08T11:23:22.181Z,31.40
2018-06-08T11:25:52.521Z,31.90
2018-06-08T11:33:22.732Z,32.90
2018-06-08T11:35:53.021Z,32.70
2018-06-08T11:38:23.375Z,32.80
2018-06-08T11:40:53.664Z,33.00
2018-06-08T11:43:24.021Z,33.20
2018-06-08T11:45:54.406Z,32.80
2018-06-08T11:48:24.648Z,32.50
2018-06-08T11:50:54.947Z,32.50
2018-06-08T11:55:55.399Z,31.90
2018-06-08T12:00:55.642Z,31.60
2018-06-08T12:03:26.868Z,31.40
2018-06-08T12:05:57.177Z,30.80
2018-06-08T12:08:27.569Z,30.60
2018-06-08T12:10:57.901Z,30.60
2018-06-08T12:13:28.230Z,30.70
2018-06-08T12:15:58.584Z,31.20
2018-06-08T12:18:28.892Z,31.50
2018-06-08T12:20:59.221Z,31.40
2018-06-08T12:23:29.540Z,31.30
2018-06-08T12:25:59.853Z,31.20
2018-06-08T12:28:30.232Z,31.90
2018-06-08T12:31:00.581Z,32.80
2018-06-08T12:33:30.824Z,32.80
2018-06-08T12:36:01.206Z,32.80
2018-06-08T12:38:31.587Z,33.50
2018-06-08T12:41:01.980Z,34.00
2018-06-08T12:43:32.356Z,34.90
2018-06-08T12:46:02.685Z,35.50
2018-06-08T12:51:02.936Z,36.90
2018-06-08T12:53:33.429Z,36.40
2018-06-08T12:56:03.755Z,35.70
2018-06-08T12:58:34.127Z,34.70
2018-06-08T13:01:04.444Z,33.90
2018-06-08T13:03:34.755Z,33.10
2018-06-08T13:08:35.087Z,32.30
2018-06-08T13:11:05.354Z,32.00
2018-06-08T13:13:35.677Z,31.70
2018-06-08T13:16:06.018Z,31.40
2018-06-08T13:18:36.391Z,31.00
2018-06-08T13:23:36.601Z,30.30
2018-06-08T13:26:06.967Z,30.10
2018-06-08T13:31:07.252Z,30.90
2018-06-08T13:33:37.561Z,32.30
2018-06-08T13:36:07.843Z,33.60
2018-06-08T13:38:38.163Z,34.40
2018-06-08T13:43:38.376Z,35.80
2018-06-08T13:47:13.072Z,36.50
2018-06-08T13:49:43.396Z,37.10
2018-06-08T13:52:13.685Z,37.10
2018-06-08T13:54:44.144Z,36.80
2018-06-08T13:57:14.493Z,36.50
2018-06-08T13:59:44.793Z,36.10
2018-06-08T14:02:15.108Z,35.40
2018-06-08T14:04:45.580Z,35.20
2018-06-08T14:07:15.932Z,35.00
2018-06-08T14:12:16.438Z,34.80
2018-06-08T14:14:46.720Z,34.40
2018-06-08T14:17:16.980Z,33.60
2018-06-08T14:19:47.419Z,33.30
2018-06-08T14:22:18.002Z,33.10
2018-06-08T14:24:48.408Z,33.10
2018-06-08T14:29:48.603Z,32.70
2018-06-08T14:32:18.879Z,32.40
2018-06-08T14:37:19.084Z,33.00
2018-06-08T14:39:49.486Z,33.60
2018-06-08T14:42:19.746Z,34.20
2018-06-08T14:47:19.931Z,34.90
2018-06-08T14:49:50.244Z,35.40
2018-06-08T14:52:20.599Z,35.80
2018-06-08T14:54:51.160Z,36.20
2018-06-08T14:59:51.475Z,35.80
2018-06-08T15:02:21.829Z,35.60
2018-06-08T15:04:52.112Z,35.40
2018-06-08T15:07:22.434Z,35.10
2018-06-08T15:09:52.724Z,35.20
2018-06-08T15:12:23.475Z,35.80
2018-06-08T15:14:53.805Z,35.90
2018-06-08T15:17:24.120Z,35.90
2018-06-08T15:19:54.443Z,35.90
2018-06-08T15:22:24.728Z,35.30
2018-06-08T15:24:55.053Z,34.50
2018-06-08T15:27:25.429Z,34.00
2018-06-08T15:30:07.419Z,34.10
2018-06-08T15:32:37.745Z,34.80
2018-06-08T15:35:08.093Z,35.80
2018-06-08T15:37:38.408Z,36.50
2018-06-08T15:40:08.791Z,37.20
2018-06-08T15:42:39.105Z,37.60
2018-06-08T15:47:39.380Z,38.20
2018-06-08T15:50:09.667Z,38.20
2018-06-08T15:52:40.001Z,38.20
2018-06-08T15:55:10.371Z,37.90
2018-06-08T15:57:40.718Z,38.00
2018-06-08T16:00:11.052Z,38.10
2018-06-08T16:02:41.401Z,37.80
2018-06-08T16:05:11.725Z,37.60
2018-06-08T16:10:12.053Z,37.80
2018-06-08T16:12:42.312Z,38.00
2018-06-08T16:15:12.629Z,38.30
2018-06-08T16:17:42.932Z,38.50
2018-06-08T16:20:13.251Z,38.50
2018-06-08T16:25:13.446Z,39.40
2018-06-08T16:27:43.808Z,39.60
2018-06-08T16:32:44.077Z,39.50
2018-06-08T16:35:14.449Z,39.10
2018-06-08T16:37:44.772Z,38.60
2018-06-08T16:40:15.113Z,38.10
2018-06-08T16:42:45.391Z,37.70
2018-06-08T16:45:15.702Z,37.30
2018-06-08T16:47:45.993Z,37.20
2018-06-08T16:52:46.246Z,36.20
2018-06-08T16:55:16.584Z,36.00
2018-06-08T16:57:46.948Z,35.70
2018-06-08T17:00:17.248Z,35.40
2018-06-08T17:02:47.568Z,34.80
2018-06-08T17:05:17.897Z,34.20
2018-06-08T17:07:48.213Z,33.90
2018-06-08T17:10:19.258Z,33.40
2018-06-08T17:12:49.611Z,33.00
2018-06-08T17:15:19.937Z,32.50
2018-06-08T17:17:50.318Z,32.10
2018-06-08T17:20:20.612Z,32.00
2018-06-08T17:27:50.726Z,31.00
2018-06-08T17:30:21.005Z,30.90
2018-06-08T17:35:21.264Z,30.30
2018-06-08T17:37:51.590Z,30.10
2018-06-08T17:40:21.898Z,29.80
2018-06-08T17:42:52.528Z,29.60
2018-06-08T17:45:22.860Z,29.30
2018-06-08T17:47:53.231Z,29.10
2018-06-08T17:50:23.531Z,28.90
2018-06-08T17:52:53.836Z,28.60
2018-06-08T17:55:24.188Z,28.30
2018-06-08T17:57:54.573Z,28.10
2018-06-08T18:00:24.883Z,27.90
2018-06-08T18:02:55.261Z,27.60
2018-06-08T18:05:25.569Z,27.40
2018-06-08T18:07:55.897Z,27.10
2018-06-08T18:10:26.172Z,27.00
2018-06-08T18:12:56.516Z,26.90
2018-06-08T18:15:26.777Z,26.80
2018-06-08T18:17:57.138Z,26.60
2018-06-08T18:20:27.368Z,26.40
2018-06-08T18:22:57.654Z,26.30
2018-06-08T18:25:27.966Z,26.00
2018-06-08T18:27:58.288Z,25.80
2018-06-08T18:30:28.589Z,25.50
2018-06-08T18:32:58.876Z,25.30
2018-06-08T18:35:29.168Z,25.30
2018-06-08T18:37:59.612Z,25.20
2018-06-08T18:40:29.877Z,25.10
2018-06-08T18:43:00.549Z,24.90
2018-06-08T18:45:31.133Z,24.80
2018-06-08T18:48:02.235Z,24.70
2018-06-08T18:50:32.496Z,24.60
2018-06-08T18:53:02.792Z,24.50
2018-06-08T18:55:33.118Z,24.40
2018-06-08T18:58:03.516Z,24.40
2018-06-08T19:00:33.778Z,24.20
2018-06-08T19:03:04.116Z,24.20
2018-06-08T19:05:34.417Z,24.00
2018-06-08T19:08:04.776Z,23.90
2018-06-08T19:10:35.087Z,23.80
2018-06-08T19:13:05.548Z,23.70
2018-06-08T19:15:35.885Z,23.60
2018-06-08T19:18:06.304Z,23.40
2018-06-08T19:20:36.629Z,23.40
2018-06-08T19:23:07.009Z,23.30
2018-06-08T19:28:07.359Z,23.20
2018-06-08T19:33:07.761Z,23.20
2018-06-08T19:35:40.190Z,23.10
2018-06-08T19:38:10.567Z,23.00
2018-06-08T19:40:40.932Z,23.00
2018-06-08T19:43:11.299Z,22.90
2018-06-08T19:45:41.621Z,22.80
2018-06-08T19:48:11.956Z,22.80
2018-06-08T19:50:42.414Z,22.80
2018-06-08T19:53:12.769Z,22.60
2018-06-08T19:55:43.125Z,22.50
2018-06-08T19:58:13.459Z,22.40
2018-06-08T20:00:43.884Z,22.30
2018-06-08T20:03:14.261Z,22.30
2018-06-08T20:05:44.705Z,22.30
2018-06-08T20:08:15.067Z,22.30
2018-06-08T20:10:46.005Z,22.30
2018-06-08T20:13:16.459Z,22.20
2018-06-08T20:15:46.784Z,22.20
2018-06-08T20:18:17.168Z,22.20
2018-06-08T20:20:47.526Z,22.10
2018-06-08T20:23:17.893Z,22.10
2018-06-08T20:25:48.201Z,22.00
2018-06-08T20:28:18.549Z,22.00
2018-06-08T20:30:48.867Z,21.90
2018-06-08T20:33:19.241Z,21.90
2018-06-08T20:35:49.636Z,21.90
2018-06-08T20:38:19.933Z,21.90
2018-06-08T20:40:50.317Z,21.80
2018-06-08T20:43:20.612Z,21.70
2018-06-08T20:45:50.943Z,21.70
2018-06-08T20:48:21.284Z,21.60
2018-06-08T20:50:51.539Z,21.60
2018-06-08T20:53:21.856Z,21.60
2018-06-08T20:55:52.229Z,21.50
2018-06-08T20:58:29.455Z,21.50
2018-06-08T21:00:59.813Z,21.50
2018-06-08T21:03:30.069Z,21.40
2018-06-08T21:06:00.385Z,21.40
2018-06-08T21:08:30.649Z,21.40
2018-06-08T21:11:00.985Z,21.40
2018-06-08T21:13:31.250Z,21.30
2018-06-08T21:16:01.570Z,21.30
2018-06-08T21:18:31.895Z,21.30
2018-06-08T21:21:02.203Z,21.20
2018-06-08T21:23:32.575Z,21.20
2018-06-08T21:26:02.922Z,21.10
2018-06-08T21:28:33.317Z,21.10
2018-06-08T21:31:03.638Z,21.10
2018-06-08T21:33:33.923Z,21.00
2018-06-08T21:36:04.263Z,21.00
2018-06-08T21:38:34.631Z,21.00
2018-06-08T21:43:34.938Z,21.00
2018-06-08T21:46:05.296Z,21.00
2018-06-08T21:48:35.638Z,21.00
2018-06-08T21:51:06.048Z,20.90
2018-06-08T21:53:36.951Z,20.90
2018-06-08T21:56:07.379Z,20.90
2018-06-08T21:58:37.678Z,20.80
2018-06-08T22:01:10.182Z,20.80
2018-06-08T22:03:40.522Z,20.70
2018-06-08T22:06:10.943Z,20.70
2018-06-08T22:08:41.348Z,20.70
2018-06-08T22:11:11.740Z,20.60
2018-06-08T22:13:42.057Z,20.60
2018-06-08T22:16:12.397Z,20.60
2018-06-08T22:18:42.884Z,20.50
2018-06-08T22:21:13.200Z,20.50
2018-06-08T22:23:43.910Z,20.50
2018-06-08T22:26:14.315Z,20.40
2018-06-08T22:28:44.704Z,20.40
2018-06-08T22:31:15.040Z,20.30
2018-06-08T22:33:45.404Z,20.30
2018-06-08T22:36:15.743Z,20.40
2018-06-08T22:38:46.065Z,20.40
2018-06-08T22:41:16.329Z,20.30
2018-06-08T22:43:46.635Z,20.20
2018-06-08T22:46:16.964Z,20.20
2018-06-08T22:48:47.322Z,20.20
2018-06-08T22:51:17.646Z,20.20
2018-06-08T22:53:47.965Z,20.10
2018-06-08T22:56:18.324Z,20.10
2018-06-08T22:58:48.677Z,20.10
2018-06-08T23:01:18.984Z,20.10
2018-06-08T23:03:49.265Z,20.00
2018-06-08T23:06:19.577Z,20.00
2018-06-08T23:11:19.864Z,19.90
2018-06-08T23:13:50.151Z,19.90
2018-06-08T23:16:20.412Z,19.80
2018-06-08T23:18:50.777Z,19.80
2018-06-08T23:23:51.016Z,19.80
2018-06-08T23:26:21.294Z,19.70
2018-06-08T23:28:51.643Z,19.70
2018-06-08T23:31:21.954Z,19.70
2018-06-08T23:33:52.210Z,19.70
2018-06-08T23:36:22.489Z,19.60
2018-06-08T23:38:52.821Z,19.60
2018-06-08T23:41:23.147Z,19.60
2018-06-08T23:43:53.461Z,19.60
2018-06-08T23:46:23.728Z,19.60
2018-06-08T23:48:54.020Z,19.60
2018-06-08T23:51:24.313Z,19.60
2018-06-08T23:53:54.645Z,19.60
2018-06-08T23:56:24.968Z,19.60
2018-06-08T23:58:55.258Z,19.70
